createdAt,value
2023-03-01T00:02:28.134Z,101319.50
2023-03-01T00:04:59.119Z,101313.84
2023-03-01T00:07:28.412Z,101312.63
2023-03-01T00:10:00.168Z,101308.89
2023-03-01T00:12:29.141Z,101306.59
2023-03-01T00:14:57.534Z,101301.77
2023-03-01T00:17:26.135Z,101301.64
2023-03-01T00:19:55.082Z,101299.52
2023-03-01T00:22:24.648Z,101296.37
2023-03-01T00:24:53.062Z,101294.08
2023-03-01T00:27:21.212Z,101279.90
2023-03-01T00:29:49.907Z,101274.95
2023-03-01T00:32:19.493Z,101281.23
2023-03-01T00:34:55.360Z,101269.69
2023-03-01T00:37:24.472Z,101262.58
2023-03-01T00:39:52.685Z,101249.17
2023-03-01T00:42:21.268Z,101241.27
2023-03-01T00:44:50.149Z,101246.64
2023-03-01T00:47:18.787Z,101235.48
2023-03-01T00:49:50.317Z,101227.58
2023-03-01T00:52:20.257Z,101230.46
2023-03-01T00:54:48.498Z,101225.09
2023-03-01T00:57:16.715Z,101242.16
2023-03-01T00:59:44.946Z,101242.52
2023-03-01T01:02:13.182Z,101229.73
2023-03-01T01:04:43.894Z,101233.77
2023-03-01T01:07:14.929Z,101223.25
2023-03-01T01:09:43.682Z,101223.86
2023-03-01T01:12:11.911Z,101212.95
2023-03-01T01:14:41.421Z,101206.87
2023-03-01T01:17:09.744Z,101211.28
2023-03-01T01:19:39.472Z,101208.11
2023-03-01T01:22:07.788Z,101215.15
2023-03-01T01:24:36.379Z,101205.64
2023-03-01T01:27:04.701Z,101212.50
2023-03-01T01:29:33.281Z,101201.31
2023-03-01T01:32:01.998Z,101188.99
2023-03-01T01:34:30.975Z,101187.48
2023-03-01T01:37:03.974Z,101178.23
2023-03-01T01:39:33.451Z,101184.63
2023-03-01T01:42:03.028Z,101181.67
2023-03-01T01:44:31.867Z,101183.60
2023-03-01T01:47:07.632Z,101186.61
2023-03-01T01:49:55.832Z,101186.57
2023-03-01T01:52:28.966Z,101181.54
2023-03-01T01:55:06.427Z,101167.86
2023-03-01T01:57:46.933Z,101170.09
2023-03-01T02:00:23.476Z,101156.81
2023-03-01T02:02:56.170Z,101153.64
2023-03-01T02:05:55.026Z,101150.42
2023-03-01T02:08:27.752Z,101143.38
2023-03-01T02:10:56.837Z,101147.61
2023-03-01T02:13:25.958Z,101141.17
2023-03-01T02:15:55.017Z,101141.11
2023-03-01T02:18:27.446Z,101132.63
2023-03-01T02:21:14.096Z,101129.20
2023-03-01T02:23:43.165Z,101126.50
2023-03-01T02:26:50.021Z,101121.36
2023-03-01T02:29:18.224Z,101116.45
2023-03-01T02:31:46.713Z,101114.38
2023-03-01T02:34:22.565Z,101112.30
2023-03-01T02:36:59.148Z,101107.86
2023-03-01T02:39:44.881Z,101110.65
2023-03-01T02:42:18.321Z,101110.42
2023-03-01T02:44:47.829Z,101105.55
2023-03-01T02:47:16.047Z,101107.98
2023-03-01T02:49:44.684Z,101100.08
2023-03-01T02:52:44.692Z,101105.67
2023-03-01T02:55:15.284Z,101097.04
2023-03-01T02:57:45.685Z,101091.48
2023-03-01T03:00:20.656Z,101081.52
2023-03-01T03:02:53.357Z,101081.38
2023-03-01T03:05:31.102Z,101079.54
2023-03-01T03:08:01.245Z,101069.83
2023-03-01T03:10:34.725Z,101063.45
2023-03-01T03:13:08.322Z,101058.98
2023-03-01T03:15:39.799Z,101054.93
2023-03-01T03:18:14.550Z,101039.84
2023-03-01T03:34:26.349Z,101050.35
2023-03-01T03:36:57.877Z,101050.97
2023-03-01T03:39:27.653Z,101049.33
2023-03-01T03:41:56.846Z,101049.12
2023-03-01T03:44:26.734Z,101043.91
2023-03-01T03:46:55.419Z,101043.48
2023-03-01T03:49:24.110Z,101039.48
2023-03-01T03:51:55.260Z,101036.20
2023-03-01T03:54:23.947Z,101038.34
2023-03-01T03:56:52.327Z,101040.07
2023-03-01T03:59:20.712Z,101037.05
2023-03-01T04:01:49.052Z,101043.30
2023-03-01T04:04:20.139Z,101041.09
2023-03-01T04:06:49.678Z,101046.13
2023-03-01T04:09:18.022Z,101043.57
2023-03-01T04:11:46.508Z,101033.63
2023-03-01T04:14:19.493Z,101027.40
2023-03-01T04:16:48.887Z,101026.12
2023-03-01T04:19:17.488Z,101018.06
2023-03-01T04:21:46.282Z,101018.47
2023-03-01T04:24:14.861Z,101021.27
2023-03-01T04:26:43.174Z,101015.30
2023-03-01T04:29:11.628Z,101017.17
2023-03-01T04:31:40.345Z,101020.07
2023-03-01T04:34:09.213Z,101020.37
2023-03-01T04:36:37.645Z,101024.64
2023-03-01T04:39:13.583Z,101021.95
2023-03-01T04:41:41.946Z,101029.70
2023-03-01T04:44:10.408Z,101027.11
2023-03-01T04:46:38.999Z,101025.27
2023-03-01T04:49:07.305Z,101031.09
2023-03-01T04:51:36.889Z,101034.99
2023-03-01T04:54:09.878Z,101039.14
2023-03-01T04:56:39.278Z,101042.55
2023-03-01T04:59:09.202Z,101036.66
2023-03-01T05:01:39.724Z,101044.42
2023-03-01T05:04:08.577Z,101045.48
2023-03-01T05:06:37.029Z,101044.77
2023-03-01T05:09:07.747Z,101045.64
2023-03-01T05:11:37.242Z,101040.09
2023-03-01T05:14:06.921Z,101036.51
2023-03-01T05:16:36.549Z,101038.39
2023-03-01T05:19:13.139Z,101039.02
2023-03-01T05:22:03.011Z,101041.90
2023-03-01T05:24:33.974Z,101048.84
2023-03-01T05:27:02.861Z,101056.42
2023-03-01T05:29:37.429Z,101066.28
2023-03-01T05:32:06.483Z,101063.43
2023-03-01T05:34:36.631Z,101058.61
2023-03-01T05:37:06.520Z,101058.60
2023-03-01T05:39:35.310Z,101055.05
2023-03-01T05:42:03.707Z,101048.89
2023-03-01T05:44:32.387Z,101045.20
2023-03-01T05:47:00.774Z,101042.87
2023-03-01T05:49:29.463Z,101046.85
2023-03-01T05:51:57.734Z,101041.80
2023-03-01T05:54:26.446Z,101039.87
2023-03-01T05:56:55.186Z,101036.92
2023-03-01T05:59:23.427Z,101037.52
2023-03-01T06:01:53.202Z,101044.92
2023-03-01T06:04:22.493Z,101041.82
2023-03-01T06:06:51.106Z,101043.50
2023-03-01T06:09:21.018Z,101044.06
2023-03-01T06:11:49.798Z,101052.91
2023-03-01T06:14:18.181Z,101040.54
2023-03-01T06:16:50.546Z,101044.52
2023-03-01T06:19:24.679Z,101038.52
2023-03-01T06:21:53.064Z,101041.79
2023-03-01T06:24:22.151Z,101040.67
2023-03-01T06:26:50.734Z,101043.87
2023-03-01T06:29:19.121Z,101047.17
2023-03-01T06:31:50.533Z,101052.40
2023-03-01T06:34:18.951Z,101053.14
2023-03-01T06:36:47.843Z,101051.63
2023-03-01T06:39:16.125Z,101060.04
2023-03-01T06:41:45.840Z,101056.21
2023-03-01T06:44:15.035Z,101060.61
2023-03-01T06:46:44.353Z,101061.80
2023-03-01T06:49:12.818Z,101065.38
2023-03-01T06:51:43.361Z,101062.30
2023-03-01T06:54:11.632Z,101058.09
2023-03-01T06:56:40.213Z,101057.37
2023-03-01T06:59:08.696Z,101055.92
2023-03-01T07:01:43.699Z,101051.10
2023-03-01T07:04:12.754Z,101054.14
2023-03-01T07:06:41.367Z,101054.33
2023-03-01T07:09:11.026Z,101055.55
2023-03-01T07:11:39.627Z,101057.13
2023-03-01T07:14:16.955Z,101063.80
2023-03-01T07:16:46.043Z,101058.75
2023-03-01T07:19:14.380Z,101055.11
2023-03-01T07:21:43.993Z,101048.27
2023-03-01T07:24:12.487Z,101052.54
2023-03-01T07:26:50.294Z,101049.48
2023-03-01T07:29:18.664Z,101050.36
2023-03-01T07:31:47.447Z,101050.70
2023-03-01T07:34:17.586Z,101051.11
2023-03-01T07:36:46.685Z,101048.17
2023-03-01T07:39:17.476Z,101044.68
2023-03-01T07:41:47.241Z,101044.27
2023-03-01T07:44:16.624Z,101034.36
2023-03-01T07:46:45.314Z,101029.10
2023-03-01T07:49:13.795Z,101040.14
2023-03-01T07:51:43.303Z,101035.71
2023-03-01T07:54:12.583Z,101034.83
2023-03-01T07:56:42.013Z,101039.13
2023-03-01T07:59:12.543Z,101035.02
2023-03-01T08:01:41.143Z,101030.27
2023-03-01T08:04:10.149Z,101033.55
2023-03-01T08:06:40.553Z,101035.30
2023-03-01T08:09:09.852Z,101031.02
2023-03-01T08:11:38.889Z,101030.49
2023-03-01T08:14:27.097Z,101020.58
2023-03-01T08:16:56.596Z,101030.77
2023-03-01T08:19:25.701Z,101025.30
2023-03-01T08:21:54.590Z,101028.05
2023-03-01T08:24:25.272Z,101028.64
2023-03-01T08:26:56.473Z,101040.63
2023-03-01T08:29:26.288Z,101046.93
2023-03-01T08:31:54.880Z,101047.34
2023-03-01T08:34:23.272Z,101046.00
2023-03-01T08:36:54.096Z,101051.70
2023-03-01T08:39:22.930Z,101051.06
2023-03-01T08:41:51.478Z,101050.27
2023-03-01T08:44:22.315Z,101055.45
2023-03-01T08:46:52.636Z,101049.80
2023-03-01T08:49:21.327Z,101044.56
2023-03-01T08:51:51.143Z,101039.52
2023-03-01T08:54:21.066Z,101032.71
2023-03-01T08:56:51.196Z,101027.92
2023-03-01T08:59:20.692Z,101029.92
2023-03-01T09:01:49.470Z,101027.69
2023-03-01T09:04:18.200Z,101030.62
2023-03-01T09:06:46.653Z,101034.04
2023-03-01T09:09:19.846Z,101042.50
2023-03-01T09:11:48.736Z,101038.25
2023-03-01T09:14:19.891Z,101042.34
2023-03-01T09:16:49.420Z,101047.56
2023-03-01T09:19:17.977Z,101048.96
2023-03-01T09:21:53.338Z,101046.23
2023-03-01T09:24:22.659Z,101055.27
2023-03-01T09:26:55.603Z,101053.21
2023-03-01T09:29:24.768Z,101048.31
2023-03-01T09:31:56.796Z,101046.77
2023-03-01T09:34:26.493Z,101043.84
2023-03-01T09:37:15.352Z,101056.99
2023-03-01T09:39:58.105Z,101057.40
2023-03-01T09:42:48.264Z,101056.52
2023-03-01T09:45:42.050Z,101051.58
2023-03-01T09:48:17.706Z,101050.72
2023-03-01T09:50:50.273Z,101050.04
2023-03-01T09:53:23.568Z,101050.30
2023-03-01T09:56:04.767Z,101051.19
2023-03-01T09:58:56.584Z,101056.16
2023-03-01T10:01:45.548Z,101049.88
2023-03-01T10:04:26.514Z,101050.50
2023-03-01T10:07:19.588Z,101044.92
2023-03-01T10:09:48.276Z,101045.39
2023-03-01T10:12:19.025Z,101032.65
2023-03-01T10:15:02.287Z,101041.58
2023-03-01T10:17:41.268Z,101033.30
2023-03-01T10:20:21.839Z,101029.85
2023-03-01T10:22:53.799Z,101027.38
2023-03-01T10:25:44.096Z,101024.89
2023-03-01T10:28:21.001Z,101027.52
2023-03-01T10:30:50.622Z,101027.94
2023-03-01T10:33:34.226Z,101030.88
2023-03-01T10:36:03.058Z,101029.80
2023-03-01T10:38:33.119Z,101027.55
2023-03-01T10:41:07.650Z,101021.02
2023-03-01T10:43:51.311Z,101025.16
2023-03-01T10:46:38.699Z,101018.75
2023-03-01T10:49:23.410Z,101019.16
2023-03-01T10:51:53.477Z,101018.86
2023-03-01T10:54:30.331Z,101022.79
2023-03-01T10:57:04.142Z,101018.13
2023-03-01T10:59:33.608Z,101016.48
2023-03-01T11:02:25.487Z,101018.05
2023-03-01T11:05:14.018Z,101015.46
2023-03-01T11:08:08.906Z,101009.86
2023-03-01T11:10:37.280Z,101009.74
2023-03-01T11:13:16.144Z,101014.01
2023-03-01T11:16:03.446Z,101010.52
2023-03-01T11:18:46.148Z,101016.27
2023-03-01T11:21:16.999Z,101018.57
2023-03-01T11:23:46.085Z,101021.84
2023-03-01T11:26:14.468Z,101021.50
2023-03-01T11:28:42.847Z,101025.75
2023-03-01T11:31:15.370Z,101030.16
2023-03-01T11:34:06.946Z,101033.38
2023-03-01T11:36:43.471Z,101028.14
2023-03-01T11:40:16.723Z,101024.27
2023-03-01T11:42:54.046Z,101023.86
2023-03-01T11:45:24.697Z,101021.21
2023-03-01T11:48:18.628Z,101018.51
2023-03-01T11:50:49.469Z,101016.08
2023-03-01T11:53:45.088Z,101014.16
2023-03-01T11:56:22.190Z,101013.40
2023-03-01T11:59:03.878Z,101012.95
2023-03-01T12:01:48.832Z,101010.58
2023-03-01T12:04:33.941Z,101010.91
2023-03-01T12:07:15.296Z,101016.95
2023-03-01T12:10:06.007Z,101019.09
2023-03-01T12:12:40.118Z,101019.55
2023-03-01T12:15:26.110Z,101016.98
2023-03-01T12:18:12.833Z,101023.88
2023-03-01T12:20:53.242Z,101020.17
2023-03-01T12:23:40.611Z,101022.25
2023-03-01T12:26:09.196Z,101025.77
2023-03-01T12:28:49.862Z,101024.02
2023-03-01T12:31:33.428Z,101025.08
2023-03-01T12:34:38.347Z,101026.20
2023-03-01T12:37:12.660Z,101032.20
2023-03-01T12:40:05.136Z,101035.83
2023-03-01T12:42:42.907Z,101037.27
2023-03-01T12:45:20.836Z,101029.79
2023-03-01T12:47:56.204Z,101031.70
2023-03-01T12:50:25.849Z,101026.58
2023-03-01T12:52:58.958Z,101033.77
2023-03-01T12:55:37.693Z,101034.58
2023-03-01T12:58:29.910Z,101033.19
2023-03-01T13:01:15.611Z,101038.32
2023-03-01T13:03:49.774Z,101033.52
2023-03-01T13:07:00.912Z,101035.84
2023-03-01T13:09:47.620Z,101033.80
2023-03-01T13:12:49.906Z,101029.48
2023-03-01T13:15:24.420Z,101030.09
2023-03-01T13:18:02.951Z,101031.19
2023-03-01T13:20:36.240Z,101034.57
2023-03-01T13:23:22.380Z,101037.33
2023-03-01T13:26:02.702Z,101042.52
2023-03-01T13:28:37.463Z,101038.25
2023-03-01T13:31:07.593Z,101043.73
2023-03-01T13:33:46.933Z,101043.98
2023-03-01T13:36:29.462Z,101042.15
2023-03-01T13:38:59.380Z,101043.65
2023-03-01T13:41:40.202Z,101039.20
2023-03-01T13:44:18.608Z,101041.12
2023-03-01T13:46:57.575Z,101032.90
2023-03-01T13:49:44.360Z,101030.36
2023-03-01T13:52:29.635Z,101036.20
2023-03-01T13:54:58.113Z,101030.96
2023-03-01T13:57:34.656Z,101033.16
2023-03-01T14:00:06.076Z,101037.76
2023-03-01T14:02:38.038Z,101035.21
2023-03-01T14:05:26.763Z,101033.53
2023-03-01T14:08:21.670Z,101034.44
2023-03-01T14:11:26.238Z,101035.77
2023-03-01T14:14:33.999Z,101032.54
2023-03-01T14:17:25.027Z,101027.29
2023-03-01T14:20:05.682Z,101029.93
2023-03-01T14:22:37.035Z,101030.05
2023-03-01T14:26:00.824Z,101027.11
2023-03-01T14:28:52.454Z,101026.17
2023-03-01T14:33:23.117Z,101025.96
2023-03-01T14:35:00.054Z,101024.95
2023-03-01T14:37:46.904Z,101021.17
2023-03-01T14:40:48.550Z,101030.30
2023-03-01T14:44:01.682Z,101023.81
2023-03-01T14:47:00.383Z,101025.26
2023-03-01T14:49:47.421Z,101021.77
2023-03-01T14:52:36.702Z,101020.95
2023-03-01T14:55:49.074Z,101019.77
2023-03-01T14:59:27.838Z,101021.15
2023-03-01T15:02:27.509Z,101023.19
2023-03-01T15:05:32.702Z,101025.63
2023-03-01T15:08:26.707Z,101032.80
2023-03-01T15:11:34.314Z,101032.11
2023-03-01T15:15:01.470Z,101038.55
2023-03-01T15:18:00.659Z,101039.77
2023-03-01T15:20:51.520Z,101040.23
2023-03-01T15:24:10.812Z,101039.96
2023-03-01T15:27:19.405Z,101041.73
2023-03-01T15:30:16.826Z,101046.04
2023-03-01T15:33:47.651Z,101047.20
2023-03-01T15:36:41.084Z,101049.73
2023-03-01T15:39:49.299Z,101051.48
2023-03-01T15:42:59.583Z,101042.42
2023-03-01T15:47:10.044Z,101043.20
2023-03-01T15:49:56.216Z,101042.58
2023-03-01T15:52:53.980Z,101043.63
2023-03-01T15:55:42.461Z,101045.22
2023-03-01T15:58:26.824Z,101047.00
2023-03-01T16:01:53.024Z,101047.86
2023-03-01T16:04:09.493Z,101045.01
2023-03-01T16:08:06.669Z,101044.60
2023-03-01T16:10:59.849Z,101047.56
2023-03-01T16:13:53.087Z,101045.58
2023-03-01T16:17:10.021Z,101050.05
2023-03-01T16:19:57.356Z,101057.77
2023-03-01T16:23:14.070Z,101054.35
2023-03-01T16:26:27.740Z,101059.16
2023-03-01T16:29:29.383Z,101060.77
2023-03-01T16:32:10.198Z,101060.81
2023-03-01T16:35:23.245Z,101059.66
2023-03-01T16:38:19.009Z,101061.96
2023-03-01T16:41:10.068Z,101071.23
2023-03-01T16:44:10.279Z,101071.14
2023-03-01T16:47:14.097Z,101068.09
2023-03-01T16:50:07.268Z,101068.40
2023-03-01T16:53:22.228Z,101071.67
2023-03-01T16:56:12.568Z,101071.68
2023-03-01T17:00:10.310Z,101065.83
2023-03-01T17:02:34.129Z,101069.48
2023-03-01T17:05:06.471Z,101064.48
2023-03-01T17:07:52.965Z,101064.20
2023-03-01T17:10:25.417Z,101067.52
2023-03-01T17:13:03.849Z,101065.92
2023-03-01T17:16:19.717Z,101064.23
2023-03-01T17:19:37.888Z,101069.19
2023-03-01T17:25:05.178Z,101068.54
2023-03-01T17:28:02.041Z,101072.48
2023-03-01T17:30:39.620Z,101067.79
2023-03-01T17:33:30.112Z,101069.58
2023-03-01T17:36:17.544Z,101072.39
2023-03-01T17:39:11.891Z,101072.27
2023-03-01T17:42:26.927Z,101074.71
2023-03-01T17:45:09.133Z,101074.14
2023-03-01T17:48:31.368Z,101068.09
2023-03-01T17:52:29.518Z,101067.52
2023-03-01T17:55:13.361Z,101065.91
2023-03-01T17:58:19.458Z,101061.66
2023-03-01T18:01:13.790Z,101063.35
2023-03-01T18:04:02.602Z,101060.45
2023-03-01T18:06:59.252Z,101064.14
2023-03-01T18:09:56.781Z,101061.63
2023-03-01T18:13:01.354Z,101060.95
2023-03-01T18:15:52.546Z,101067.45
2023-03-01T18:22:01.698Z,101085.45
2023-03-01T18:24:57.861Z,101093.21
2023-03-01T18:27:47.698Z,101098.41
2023-03-01T18:30:35.017Z,101101.02
2023-03-01T18:33:49.464Z,101104.90
2023-03-01T18:37:08.839Z,101108.33
2023-03-01T18:40:32.269Z,101108.69
2023-03-01T18:43:33.937Z,101115.45
2023-03-01T18:46:15.824Z,101113.05
2023-03-01T18:55:06.993Z,101117.55
2023-03-01T18:57:59.101Z,101119.54
2023-03-01T19:00:46.368Z,101123.29
2023-03-01T19:03:49.652Z,101126.17
2023-03-01T19:06:39.354Z,101127.17
2023-03-01T19:09:26.569Z,101130.27
2023-03-01T19:12:12.606Z,101135.83
2023-03-01T19:15:00.182Z,101137.81
2023-03-01T19:21:09.482Z,101139.90
2023-03-01T19:23:54.220Z,101144.25
2023-03-01T19:26:46.965Z,101145.84
2023-03-01T19:29:34.501Z,101148.41
2023-03-01T19:32:40.875Z,101149.88
2023-03-01T19:35:41.162Z,101152.95
2023-03-01T19:39:04.930Z,101150.94
2023-03-01T19:42:06.146Z,101158.26
2023-03-01T19:45:08.600Z,101161.46
2023-03-01T19:48:08.684Z,101158.23
2023-03-01T19:51:03.324Z,101159.69
2023-03-01T19:53:45.939Z,101161.64
2023-03-01T19:56:28.570Z,101164.54
2023-03-01T19:59:42.944Z,101165.10
2023-03-01T20:02:27.059Z,101165.33
2023-03-01T20:05:20.268Z,101163.77
2023-03-01T20:08:18.108Z,101172.68
2023-03-01T20:11:28.584Z,101172.19
2023-03-01T20:14:17.157Z,101171.97
2023-03-01T20:17:18.126Z,101172.36
2023-03-01T20:19:54.674Z,101167.48
2023-03-01T20:23:46.616Z,101160.80
2023-03-01T20:26:16.983Z,101160.64
2023-03-01T20:29:29.734Z,101162.95
2023-03-01T20:32:20.061Z,101161.72
2023-03-01T20:35:15.465Z,101157.15
2023-03-01T20:38:00.884Z,101160.50
2023-03-01T20:40:41.102Z,101160.72
2023-03-01T20:47:07.227Z,101156.05
2023-03-01T20:50:06.911Z,101153.20
2023-03-01T20:53:06.003Z,101152.71
2023-03-01T20:55:50.664Z,101151.16
2023-03-01T20:58:47.131Z,101148.91
2023-03-01T21:01:23.941Z,101147.94
2023-03-01T21:04:06.693Z,101152.66
2023-03-01T21:07:07.640Z,101153.52
2023-03-01T21:10:12.408Z,101154.27
2023-03-01T21:13:23.970Z,101151.81
2023-03-01T21:16:41.937Z,101144.64
2023-03-01T21:19:29.404Z,101145.33
2023-03-01T21:22:22.345Z,101143.26
2023-03-01T21:25:15.224Z,101141.96
2023-03-01T21:28:34.813Z,101142.73
2023-03-01T21:31:34.213Z,101142.38
2023-03-01T21:34:38.730Z,101141.08
2023-03-01T21:37:15.019Z,101144.23
2023-03-01T21:39:52.616Z,101145.10
2023-03-01T21:42:53.838Z,101144.95
2023-03-01T21:45:36.860Z,101151.60
2023-03-01T21:48:25.133Z,101149.58
2023-03-01T21:51:06.843Z,101149.41
2023-03-01T21:54:15.869Z,101148.55
2023-03-01T21:59:57.579Z,101151.12
2023-03-01T22:02:59.296Z,101149.81
2023-03-01T22:06:03.661Z,101148.29
2023-03-01T22:09:13.926Z,101146.21
2023-03-01T22:12:34.341Z,101141.42
2023-03-01T22:15:29.367Z,101141.67
2023-03-01T22:18:27.609Z,101139.10
2023-03-01T22:21:14.013Z,101139.27
2023-03-01T22:24:07.700Z,101139.90
2023-03-01T22:26:56.820Z,101141.09
2023-03-01T22:29:49.859Z,101142.35
2023-03-01T22:32:43.968Z,101140.38
2023-03-01T22:35:35.008Z,101142.27
2023-03-01T22:38:29.822Z,101145.99
2023-03-01T22:42:03.690Z,101142.60
2023-03-01T22:44:54.820Z,101142.80
2023-03-01T22:48:03.381Z,101148.17
2023-03-01T22:51:29.204Z,101146.71
2023-03-01T22:54:24.829Z,101149.73
2023-03-01T22:57:19.936Z,101144.73
2023-03-01T23:00:33.407Z,101140.85
2023-03-01T23:06:22.565Z,101137.09
2023-03-01T23:09:08.067Z,101141.48
2023-03-01T23:11:49.979Z,101143.80
2023-03-01T23:14:50.552Z,101141.68
2023-03-01T23:17:46.022Z,101140.71
2023-03-01T23:20:39.152Z,101134.28
2023-03-01T23:24:08.787Z,101131.73
2023-03-01T23:27:01.552Z,101123.45
2023-03-01T23:29:46.494Z,101121.84
2023-03-01T23:32:42.011Z,101134.97
2023-03-01T23:35:47.704Z,101128.44
2023-03-01T23:38:35.887Z,101130.52
2023-03-01T23:41:52.315Z,101131.21
2023-03-01T23:44:41.605Z,101130.89
2023-03-01T23:48:29.637Z,101128.38
2023-03-01T23:51:03.175Z,101124.39
2023-03-01T23:54:01.892Z,101120.86
2023-03-01T23:59:52.457Z,101114.31
